sensor_id;sensor_type;location;lat;lon;timestamp;temperature;humidity
51950;DHT22;37974;53.218;6.640;2022-09-09T00:01:34;14.80;99.90
51950;DHT22;37974;53.218;6.640;2022-09-09T00:04:05;14.90;99.90
51950;DHT22;37974;53.218;6.640;2022-09-09T00:06:42;14.80;99.90
51950;DHT22;37974;53.218;6.640;2022-09-09T00:09:12;14.80;99.90
51950;DHT22;37974;53.218;6.640;2022-09-09T00:11:52;14.70;99.90
51950;DHT22;37974;53.218;6.640;2022-09-09T00:14:26;14.70;99.90
51950;DHT22;37974;53.218;6.640;2022-09-09T00:17:00;14.60;99.90
51950;DHT22;37974;53.218;6.640;2022-09-09T00:22:19;14.50;99.90
51950;DHT22;37974;53.218;6.640;2022-09-09T00:24:48;14.50;99.90
51950;DHT22;37974;53.218;6.640;2022-09-09T00:27:23;14.40;99.90
51950;DHT22;37974;53.218;6.640;2022-09-09T00:30:01;14.40;99.90
51950;DHT22;37974;53.218;6.640;2022-09-09T00:32:30;14.40;99.90
51950;DHT22;37974;53.218;6.640;2022-09-09T00:35:04;14.30;99.90
51950;DHT22;37974;53.218;6.640;2022-09-09T00:37:38;14.30;99.90
51950;DHT22;37974;53.218;6.640;2022-09-09T00:40:20;14.20;99.90
51950;DHT22;37974;53.218;6.640;2022-09-09T00:42:53;14.20;99.90
51950;DHT22;37974;53.218;6.640;2022-09-09T00:45:52;14.20;99.90
51950;DHT22;37974;53.218;6.640;2022-09-09T00:48:22;14.20;99.90
51950;DHT22;37974;53.218;6.640;2022-09-09T00:53:21;14.20;99.90
51950;DHT22;37974;53.218;6.640;2022-09-09T00:55:58;14.10;99.90
51950;DHT22;37974;53.218;6.640;2022-09-09T00:58:27;14.10;99.90
51950;DHT22;37974;53.218;6.640;2022-09-09T01:01:04;14.10;99.90
51950;DHT22;37974;53.218;6.640;2022-09-09T01:03:38;14.10;99.90
51950;DHT22;37974;53.218;6.640;2022-09-09T01:06:30;14.00;99.90
51950;DHT22;37974;53.218;6.640;2022-09-09T01:09:12;14.00;99.90
51950;DHT22;37974;53.218;6.640;2022-09-09T01:14:32;14.00;99.90
51950;DHT22;37974;53.218;6.640;2022-09-09T01:17:07;14.00;99.90
51950;DHT22;37974;53.218;6.640;2022-09-09T01:27:20;13.90;99.90
51950;DHT22;37974;53.218;6.640;2022-09-09T01:29:47;13.90;99.90
51950;DHT22;37974;53.218;6.640;2022-09-09T01:32:37;13.90;99.90
51950;DHT22;37974;53.218;6.640;2022-09-09T01:35:08;13.90;99.90
51950;DHT22;37974;53.218;6.640;2022-09-09T01:37:35;13.90;99.90
51950;DHT22;37974;53.218;6.640;2022-09-09T01:40:01;13.90;99.90
51950;DHT22;37974;53.218;6.640;2022-09-09T01:42:27;13.90;99.90
51950;DHT22;37974;53.218;6.640;2022-09-09T01:44:53;13.90;99.90
51950;DHT22;37974;53.218;6.640;2022-09-09T01:47:20;13.90;99.90
51950;DHT22;37974;53.218;6.640;2022-09-09T01:49:45;13.80;99.90
51950;DHT22;37974;53.218;6.640;2022-09-09T01:52:11;13.80;99.90
51950;DHT22;37974;53.218;6.640;2022-09-09T01:54:37;13.70;99.90
51950;DHT22;37974;53.218;6.640;2022-09-09T01:57:13;13.70;99.90
51950;DHT22;37974;53.218;6.640;2022-09-09T02:02:21;13.70;99.90
51950;DHT22;37974;53.218;6.640;2022-09-09T02:04:54;13.70;99.90
51950;DHT22;37974;53.218;6.640;2022-09-09T02:07:28;13.70;99.90
51950;DHT22;37974;53.218;6.640;2022-09-09T02:10:01;13.60;99.90
51950;DHT22;37974;53.218;6.640;2022-09-09T02:12:29;13.60;99.90
51950;DHT22;37974;53.218;6.640;2022-09-09T02:15:02;13.60;99.90
51950;DHT22;37974;53.218;6.640;2022-09-09T02:17:32;13.50;99.90
51950;DHT22;37974;53.218;6.640;2022-09-09T02:20:05;13.60;99.90
51950;DHT22;37974;53.218;6.640;2022-09-09T02:22:33;13.60;99.90
51950;DHT22;37974;53.218;6.640;2022-09-09T02:25:02;13.60;99.90
51950;DHT22;37974;53.218;6.640;2022-09-09T02:27:30;13.50;99.90
51950;DHT22;37974;53.218;6.640;2022-09-09T02:29:57;13.50;99.90
51950;DHT22;37974;53.218;6.640;2022-09-09T02:32:25;13.60;99.90
51950;DHT22;37974;53.218;6.640;2022-09-09T02:34:57;13.60;99.90
51950;DHT22;37974;53.218;6.640;2022-09-09T02:37:29;13.60;99.90
51950;DHT22;37974;53.218;6.640;2022-09-09T02:39:57;13.60;99.90
51950;DHT22;37974;53.218;6.640;2022-09-09T02:42:23;13.60;99.90
51950;DHT22;37974;53.218;6.640;2022-09-09T02:44:49;13.80;99.90
51950;DHT22;37974;53.218;6.640;2022-09-09T02:47:25;13.60;99.90
51950;DHT22;37974;53.218;6.640;2022-09-09T02:52:51;13.70;99.90
51950;DHT22;37974;53.218;6.640;2022-09-09T02:55:33;13.70;99.90
51950;DHT22;37974;53.218;6.640;2022-09-09T02:58:04;13.70;99.90
51950;DHT22;37974;53.218;6.640;2022-09-09T03:00:31;13.80;99.90
51950;DHT22;37974;53.218;6.640;2022-09-09T03:02:58;13.80;99.90
51950;DHT22;37974;53.218;6.640;2022-09-09T03:05:24;13.90;99.90
51950;DHT22;37974;53.218;6.640;2022-09-09T03:07:51;13.90;99.90
51950;DHT22;37974;53.218;6.640;2022-09-09T03:10:20;14.00;99.90
51950;DHT22;37974;53.218;6.640;2022-09-09T03:12:46;14.10;99.90
51950;DHT22;37974;53.218;6.640;2022-09-09T03:15:12;14.00;99.90
51950;DHT22;37974;53.218;6.640;2022-09-09T03:17:38;14.10;99.90
51950;DHT22;37974;53.218;6.640;2022-09-09T03:20:04;14.10;99.90
51950;DHT22;37974;53.218;6.640;2022-09-09T03:22:30;14.20;99.90
51950;DHT22;37974;53.218;6.640;2022-09-09T03:24:56;14.10;99.90
51950;DHT22;37974;53.218;6.640;2022-09-09T03:27:22;14.20;99.90
51950;DHT22;37974;53.218;6.640;2022-09-09T03:29:48;14.20;99.90
51950;DHT22;37974;53.218;6.640;2022-09-09T03:32:17;14.30;99.90
51950;DHT22;37974;53.218;6.640;2022-09-09T03:34:43;14.30;99.90
51950;DHT22;37974;53.218;6.640;2022-09-09T03:37:12;14.30;99.90
51950;DHT22;37974;53.218;6.640;2022-09-09T03:39:37;14.30;99.90
51950;DHT22;37974;53.218;6.640;2022-09-09T03:42:03;14.30;99.90
51950;DHT22;37974;53.218;6.640;2022-09-09T03:44:30;14.40;99.90
51950;DHT22;37974;53.218;6.640;2022-09-09T03:46:56;14.30;99.90
51950;DHT22;37974;53.218;6.640;2022-09-09T03:49:21;14.40;99.90
51950;DHT22;37974;53.218;6.640;2022-09-09T03:51:48;14.40;99.90
51950;DHT22;37974;53.218;6.640;2022-09-09T03:54:14;14.50;99.90
51950;DHT22;37974;53.218;6.640;2022-09-09T03:56:39;14.40;99.90
51950;DHT22;37974;53.218;6.640;2022-09-09T03:59:07;14.50;99.90
51950;DHT22;37974;53.218;6.640;2022-09-09T04:01:34;14.50;99.90
51950;DHT22;37974;53.218;6.640;2022-09-09T04:04:00;14.50;99.90
51950;DHT22;37974;53.218;6.640;2022-09-09T04:06:28;14.50;99.90
51950;DHT22;37974;53.218;6.640;2022-09-09T04:08:54;14.50;99.90
51950;DHT22;37974;53.218;6.640;2022-09-09T04:11:21;14.50;99.90
51950;DHT22;37974;53.218;6.640;2022-09-09T04:13:46;14.60;99.90
51950;DHT22;37974;53.218;6.640;2022-09-09T04:16:13;14.50;99.90
51950;DHT22;37974;53.218;6.640;2022-09-09T04:18:39;14.50;99.90
51950;DHT22;37974;53.218;6.640;2022-09-09T04:21:05;14.60;99.90
51950;DHT22;37974;53.218;6.640;2022-09-09T04:23:32;14.60;99.90
51950;DHT22;37974;53.218;6.640;2022-09-09T04:26:00;14.60;99.90
51950;DHT22;37974;53.218;6.640;2022-09-09T04:28:29;14.60;99.90
51950;DHT22;37974;53.218;6.640;2022-09-09T04:30:55;14.60;99.90
51950;DHT22;37974;53.218;6.640;2022-09-09T04:33:23;14.70;99.90
51950;DHT22;37974;53.218;6.640;2022-09-09T04:35:57;14.70;99.90
51950;DHT22;37974;53.218;6.640;2022-09-09T04:38:25;14.60;99.90
51950;DHT22;37974;53.218;6.640;2022-09-09T04:40:56;14.70;99.90
51950;DHT22;37974;53.218;6.640;2022-09-09T04:43:25;14.70;99.90
51950;DHT22;37974;53.218;6.640;2022-09-09T04:45:53;14.70;99.90
51950;DHT22;37974;53.218;6.640;2022-09-09T04:48:22;14.60;99.90
51950;DHT22;37974;53.218;6.640;2022-09-09T04:50:56;14.50;99.90
51950;DHT22;37974;53.218;6.640;2022-09-09T04:53:22;14.70;99.90
51950;DHT22;37974;53.218;6.640;2022-09-09T04:55:51;14.70;99.90
51950;DHT22;37974;53.218;6.640;2022-09-09T04:58:17;14.60;99.90
51950;DHT22;37974;53.218;6.640;2022-09-09T05:00:46;14.60;99.90
51950;DHT22;37974;53.218;6.640;2022-09-09T05:03:20;14.60;99.90
51950;DHT22;37974;53.218;6.640;2022-09-09T05:05:46;14.60;99.90
51950;DHT22;37974;53.218;6.640;2022-09-09T05:08:12;14.60;99.90
51950;DHT22;37974;53.218;6.640;2022-09-09T05:10:39;14.60;99.90
51950;DHT22;37974;53.218;6.640;2022-09-09T05:13:05;14.50;99.90
51950;DHT22;37974;53.218;6.640;2022-09-09T05:15:31;14.50;99.90
51950;DHT22;37974;53.218;6.640;2022-09-09T05:18:01;14.60;99.90
51950;DHT22;37974;53.218;6.640;2022-09-09T05:20:29;14.60;99.90
51950;DHT22;37974;53.218;6.640;2022-09-09T05:22:55;14.60;99.90
51950;DHT22;37974;53.218;6.640;2022-09-09T05:25:27;14.50;99.90
51950;DHT22;37974;53.218;6.640;2022-09-09T05:27:53;14.50;99.90
51950;DHT22;37974;53.218;6.640;2022-09-09T05:30:19;14.50;99.90
51950;DHT22;37974;53.218;6.640;2022-09-09T05:32:50;14.50;99.90
51950;DHT22;37974;53.218;6.640;2022-09-09T05:35:19;14.50;99.90
51950;DHT22;37974;53.218;6.640;2022-09-09T05:37:44;14.50;99.90
51950;DHT22;37974;53.218;6.640;2022-09-09T05:40:11;14.50;99.90
51950;DHT22;37974;53.218;6.640;2022-09-09T05:42:38;14.60;99.90
51950;DHT22;37974;53.218;6.640;2022-09-09T05:45:05;14.50;99.90
51950;DHT22;37974;53.218;6.640;2022-09-09T05:47:33;14.50;99.90
51950;DHT22;37974;53.218;6.640;2022-09-09T05:49:59;14.50;99.90
51950;DHT22;37974;53.218;6.640;2022-09-09T05:52:24;14.50;99.90
51950;DHT22;37974;53.218;6.640;2022-09-09T05:54:52;14.50;99.90
51950;DHT22;37974;53.218;6.640;2022-09-09T05:57:19;14.60;99.90
51950;DHT22;37974;53.218;6.640;2022-09-09T05:59:45;14.60;99.90
51950;DHT22;37974;53.218;6.640;2022-09-09T06:02:12;14.60;99.90
51950;DHT22;37974;53.218;6.640;2022-09-09T06:04:39;14.50;99.90
51950;DHT22;37974;53.218;6.640;2022-09-09T06:07:05;14.60;99.90
51950;DHT22;37974;53.218;6.640;2022-09-09T06:09:31;14.60;99.90
51950;DHT22;37974;53.218;6.640;2022-09-09T06:11:57;14.70;99.90
51950;DHT22;37974;53.218;6.640;2022-09-09T06:14:24;14.70;99.90
51950;DHT22;37974;53.218;6.640;2022-09-09T06:16:51;14.70;99.90
51950;DHT22;37974;53.218;6.640;2022-09-09T06:19:17;14.70;99.90
51950;DHT22;37974;53.218;6.640;2022-09-09T06:21:42;14.80;99.90
51950;DHT22;37974;53.218;6.640;2022-09-09T06:24:09;14.70;99.90
51950;DHT22;37974;53.218;6.640;2022-09-09T06:26:37;14.80;99.90
51950;DHT22;37974;53.218;6.640;2022-09-09T06:29:06;14.70;99.90
51950;DHT22;37974;53.218;6.640;2022-09-09T06:31:34;14.80;99.90
51950;DHT22;37974;53.218;6.640;2022-09-09T06:34:01;14.80;99.90
51950;DHT22;37974;53.218;6.640;2022-09-09T06:36:32;14.90;99.90
51950;DHT22;37974;53.218;6.640;2022-09-09T06:42:51;14.80;99.90
51950;DHT22;37974;53.218;6.640;2022-09-09T06:45:33;15.10;99.90
51950;DHT22;37974;53.218;6.640;2022-09-09T06:48:24;14.90;99.90
51950;DHT22;37974;53.218;6.640;2022-09-09T06:51:38;15.00;99.90
51950;DHT22;37974;53.218;6.640;2022-09-09T06:56:41;15.20;99.90
51950;DHT22;37974;53.218;6.640;2022-09-09T06:59:09;15.20;99.90
51950;DHT22;37974;53.218;6.640;2022-09-09T07:01:37;15.30;99.90
51950;DHT22;37974;53.218;6.640;2022-09-09T07:04:04;15.30;99.90
51950;DHT22;37974;53.218;6.640;2022-09-09T07:06:42;15.30;99.90
51950;DHT22;37974;53.218;6.640;2022-09-09T07:09:11;15.40;99.90
51950;DHT22;37974;53.218;6.640;2022-09-09T07:11:40;15.40;99.90
51950;DHT22;37974;53.218;6.640;2022-09-09T07:14:08;15.50;99.90
51950;DHT22;37974;53.218;6.640;2022-09-09T07:16:41;15.60;99.90
51950;DHT22;37974;53.218;6.640;2022-09-09T07:19:07;15.70;99.90
51950;DHT22;37974;53.218;6.640;2022-09-09T07:21:33;15.70;99.90
51950;DHT22;37974;53.218;6.640;2022-09-09T07:23:59;15.80;99.90
51950;DHT22;37974;53.218;6.640;2022-09-09T07:26:32;15.90;99.90
51950;DHT22;37974;53.218;6.640;2022-09-09T07:28:58;15.90;99.90
51950;DHT22;37974;53.218;6.640;2022-09-09T07:31:35;15.90;99.90
51950;DHT22;37974;53.218;6.640;2022-09-09T07:34:04;16.00;99.90
51950;DHT22;37974;53.218;6.640;2022-09-09T07:36:35;16.00;99.90
51950;DHT22;37974;53.218;6.640;2022-09-09T07:39:06;16.00;99.90
51950;DHT22;37974;53.218;6.640;2022-09-09T07:42:02;16.10;99.90
51950;DHT22;37974;53.218;6.640;2022-09-09T07:44:33;15.70;99.90
51950;DHT22;37974;53.218;6.640;2022-09-09T07:47:01;16.00;99.90
51950;DHT22;37974;53.218;6.640;2022-09-09T07:49:27;16.30;99.90
51950;DHT22;37974;53.218;6.640;2022-09-09T07:51:55;16.30;99.90
51950;DHT22;37974;53.218;6.640;2022-09-09T07:54:21;16.30;99.90
51950;DHT22;37974;53.218;6.640;2022-09-09T07:56:51;16.40;99.90
51950;DHT22;37974;53.218;6.640;2022-09-09T07:59:46;16.40;99.90
51950;DHT22;37974;53.218;6.640;2022-09-09T08:02:12;16.50;99.90
51950;DHT22;37974;53.218;6.640;2022-09-09T08:04:38;16.40;99.90
51950;DHT22;37974;53.218;6.640;2022-09-09T08:07:19;16.50;99.90
51950;DHT22;37974;53.218;6.640;2022-09-09T08:09:47;16.60;99.90
51950;DHT22;37974;53.218;6.640;2022-09-09T08:12:12;16.60;99.90
51950;DHT22;37974;53.218;6.640;2022-09-09T08:14:38;16.70;99.90
51950;DHT22;37974;53.218;6.640;2022-09-09T08:17:09;16.80;99.90
51950;DHT22;37974;53.218;6.640;2022-09-09T08:19:35;16.90;99.90
51950;DHT22;37974;53.218;6.640;2022-09-09T08:22:02;17.00;99.90
51950;DHT22;37974;53.218;6.640;2022-09-09T08:24:31;17.20;99.90
51950;DHT22;37974;53.218;6.640;2022-09-09T08:27:09;17.30;99.90
51950;DHT22;37974;53.218;6.640;2022-09-09T08:29:35;17.40;99.90
51950;DHT22;37974;53.218;6.640;2022-09-09T08:32:21;17.50;99.90
51950;DHT22;37974;53.218;6.640;2022-09-09T08:34:50;17.50;99.90
51950;DHT22;37974;53.218;6.640;2022-09-09T08:37:28;17.60;99.90
51950;DHT22;37974;53.218;6.640;2022-09-09T08:39:57;17.70;99.90
51950;DHT22;37974;53.218;6.640;2022-09-09T08:42:46;17.80;99.90
51950;DHT22;37974;53.218;6.640;2022-09-09T08:45:22;17.90;99.90
51950;DHT22;37974;53.218;6.640;2022-09-09T08:48:10;18.00;99.90
51950;DHT22;37974;53.218;6.640;2022-09-09T08:50:52;18.10;99.90
51950;DHT22;37974;53.218;6.640;2022-09-09T08:53:28;18.20;99.90
51950;DHT22;37974;53.218;6.640;2022-09-09T08:56:08;18.30;99.90
51950;DHT22;37974;53.218;6.640;2022-09-09T08:58:43;18.30;99.90
51950;DHT22;37974;53.218;6.640;2022-09-09T09:03:57;18.30;99.90
51950;DHT22;37974;53.218;6.640;2022-09-09T09:06:41;18.70;99.90
51950;DHT22;37974;53.218;6.640;2022-09-09T09:12:15;18.30;99.90
51950;DHT22;37974;53.218;6.640;2022-09-09T09:14:43;18.30;99.90
51950;DHT22;37974;53.218;6.640;2022-09-09T09:17:14;18.20;99.90
51950;DHT22;37974;53.218;6.640;2022-09-09T09:19:51;18.20;99.90
51950;DHT22;37974;53.218;6.640;2022-09-09T09:22:24;18.20;99.90
51950;DHT22;37974;53.218;6.640;2022-09-09T09:25:11;18.20;99.90
51950;DHT22;37974;53.218;6.640;2022-09-09T09:30:17;18.20;99.90
51950;DHT22;37974;53.218;6.640;2022-09-09T09:33:00;18.20;99.90
51950;DHT22;37974;53.218;6.640;2022-09-09T09:35:28;18.30;99.90
51950;DHT22;37974;53.218;6.640;2022-09-09T09:37:53;18.40;99.90
51950;DHT22;37974;53.218;6.640;2022-09-09T09:40:21;18.40;99.90
51950;DHT22;37974;53.218;6.640;2022-09-09T09:42:54;18.60;99.90
51950;DHT22;37974;53.218;6.640;2022-09-09T09:45:28;18.80;99.90
51950;DHT22;37974;53.218;6.640;2022-09-09T09:47:59;18.90;99.90
51950;DHT22;37974;53.218;6.640;2022-09-09T09:50:26;19.10;99.90
51950;DHT22;37974;53.218;6.640;2022-09-09T09:52:56;19.10;99.90
51950;DHT22;37974;53.218;6.640;2022-09-09T09:55:23;19.20;99.90
51950;DHT22;37974;53.218;6.640;2022-09-09T09:57:52;19.40;99.90
51950;DHT22;37974;53.218;6.640;2022-09-09T10:00:22;19.70;99.90
51950;DHT22;37974;53.218;6.640;2022-09-09T10:02:48;19.80;99.90
51950;DHT22;37974;53.218;6.640;2022-09-09T10:05:25;19.80;99.90
51950;DHT22;37974;53.218;6.640;2022-09-09T10:08:05;19.80;99.90
51950;DHT22;37974;53.218;6.640;2022-09-09T10:10:49;19.60;99.90
51950;DHT22;37974;53.218;6.640;2022-09-09T10:13:42;19.60;99.90
51950;DHT22;37974;53.218;6.640;2022-09-09T10:19:04;19.40;99.90
51950;DHT22;37974;53.218;6.640;2022-09-09T10:21:48;19.50;99.90
51950;DHT22;37974;53.218;6.640;2022-09-09T10:24:35;19.60;99.90
51950;DHT22;37974;53.218;6.640;2022-09-09T10:27:25;19.70;99.90
51950;DHT22;37974;53.218;6.640;2022-09-09T10:30:00;19.80;99.90
51950;DHT22;37974;53.218;6.640;2022-09-09T10:32:38;20.00;99.90
51950;DHT22;37974;53.218;6.640;2022-09-09T10:38:12;20.10;99.90
51950;DHT22;37974;53.218;6.640;2022-09-09T10:40:58;20.00;99.90
51950;DHT22;37974;53.218;6.640;2022-09-09T10:49:05;19.90;99.90
51950;DHT22;37974;53.218;6.640;2022-09-09T10:54:34;20.20;99.90
51950;DHT22;37974;53.218;6.640;2022-09-09T10:57:08;20.00;99.90
51950;DHT22;37974;53.218;6.640;2022-09-09T10:59:45;19.90;99.90
51950;DHT22;37974;53.218;6.640;2022-09-09T11:02:22;19.70;99.90
51950;DHT22;37974;53.218;6.640;2022-09-09T11:04:58;19.80;99.90
51950;DHT22;37974;53.218;6.640;2022-09-09T11:07:44;20.00;99.90
51950;DHT22;37974;53.218;6.640;2022-09-09T11:12:50;20.40;99.90
51950;DHT22;37974;53.218;6.640;2022-09-09T11:15:30;20.30;99.90
51950;DHT22;37974;53.218;6.640;2022-09-09T11:17:59;20.20;99.90
51950;DHT22;37974;53.218;6.640;2022-09-09T11:20:26;20.20;99.90
51950;DHT22;37974;53.218;6.640;2022-09-09T11:25:31;20.10;99.90
51950;DHT22;37974;53.218;6.640;2022-09-09T11:31:10;20.10;99.90
51950;DHT22;37974;53.218;6.640;2022-09-09T11:34:02;20.10;99.90
51950;DHT22;37974;53.218;6.640;2022-09-09T11:36:43;20.20;99.90
51950;DHT22;37974;53.218;6.640;2022-09-09T11:39:47;20.20;99.90
51950;DHT22;37974;53.218;6.640;2022-09-09T11:42:23;20.20;99.90
51950;DHT22;37974;53.218;6.640;2022-09-09T11:44:52;20.30;99.90
51950;DHT22;37974;53.218;6.640;2022-09-09T11:47:29;20.30;99.90
51950;DHT22;37974;53.218;6.640;2022-09-09T11:52:43;20.20;99.90
51950;DHT22;37974;53.218;6.640;2022-09-09T11:55:43;20.00;99.90
51950;DHT22;37974;53.218;6.640;2022-09-09T11:58:19;20.10;99.90
51950;DHT22;37974;53.218;6.640;2022-09-09T12:00:56;19.80;99.90
51950;DHT22;37974;53.218;6.640;2022-09-09T12:06:43;20.20;99.90
51950;DHT22;37974;53.218;6.640;2022-09-09T12:09:17;20.30;99.90
51950;DHT22;37974;53.218;6.640;2022-09-09T12:11:44;20.30;99.90
51950;DHT22;37974;53.218;6.640;2022-09-09T12:14:20;20.30;99.90
51950;DHT22;37974;53.218;6.640;2022-09-09T12:16:50;20.20;99.90
51950;DHT22;37974;53.218;6.640;2022-09-09T12:19:28;20.10;99.90
51950;DHT22;37974;53.218;6.640;2022-09-09T12:22:07;20.20;99.90
51950;DHT22;37974;53.218;6.640;2022-09-09T12:25:02;20.30;99.90
51950;DHT22;37974;53.218;6.640;2022-09-09T12:27:57;20.50;99.90
51950;DHT22;37974;53.218;6.640;2022-09-09T12:30:48;20.60;99.90
51950;DHT22;37974;53.218;6.640;2022-09-09T12:33:40;20.60;99.90
51950;DHT22;37974;53.218;6.640;2022-09-09T12:36:15;20.80;99.90
51950;DHT22;37974;53.218;6.640;2022-09-09T12:38:45;20.70;99.90
51950;DHT22;37974;53.218;6.640;2022-09-09T12:41:21;20.70;99.90
51950;DHT22;37974;53.218;6.640;2022-09-09T12:43:51;21.00;99.90
51950;DHT22;37974;53.218;6.640;2022-09-09T12:46:33;20.60;99.90
51950;DHT22;37974;53.218;6.640;2022-09-09T12:49:05;20.50;99.90
51950;DHT22;37974;53.218;6.640;2022-09-09T12:51:33;20.50;99.90
51950;DHT22;37974;53.218;6.640;2022-09-09T12:54:00;20.70;99.90
51950;DHT22;37974;53.218;6.640;2022-09-09T12:56:30;20.90;99.90
51950;DHT22;37974;53.218;6.640;2022-09-09T12:58:59;21.00;99.90
51950;DHT22;37974;53.218;6.640;2022-09-09T13:01:33;21.00;99.90
51950;DHT22;37974;53.218;6.640;2022-09-09T13:04:19;21.10;99.90
51950;DHT22;37974;53.218;6.640;2022-09-09T13:06:45;21.00;99.90
51950;DHT22;37974;53.218;6.640;2022-09-09T13:09:18;21.00;99.90
51950;DHT22;37974;53.218;6.640;2022-09-09T13:11:50;21.00;99.90
51950;DHT22;37974;53.218;6.640;2022-09-09T13:14:31;21.10;99.90
51950;DHT22;37974;53.218;6.640;2022-09-09T13:17:19;20.60;99.90
51950;DHT22;37974;53.218;6.640;2022-09-09T13:20:19;21.20;99.90
51950;DHT22;37974;53.218;6.640;2022-09-09T13:22:53;21.20;99.90
51950;DHT22;37974;53.218;6.640;2022-09-09T13:25:28;21.10;99.90
51950;DHT22;37974;53.218;6.640;2022-09-09T13:28:01;21.20;99.90
51950;DHT22;37974;53.218;6.640;2022-09-09T13:30:35;21.10;99.90
51950;DHT22;37974;53.218;6.640;2022-09-09T13:33:22;21.10;99.90
51950;DHT22;37974;53.218;6.640;2022-09-09T13:35:56;21.00;99.90
51950;DHT22;37974;53.218;6.640;2022-09-09T13:38:29;21.00;99.90
51950;DHT22;37974;53.218;6.640;2022-09-09T13:41:02;20.90;99.90
51950;DHT22;37974;53.218;6.640;2022-09-09T13:43:44;20.90;99.90
51950;DHT22;37974;53.218;6.640;2022-09-09T13:51:42;20.70;99.90
51950;DHT22;37974;53.218;6.640;2022-09-09T13:54:20;20.60;99.90
51950;DHT22;37974;53.218;6.640;2022-09-09T14:00:03;20.30;99.90
51950;DHT22;37974;53.218;6.640;2022-09-09T14:03:07;20.30;99.90
51950;DHT22;37974;53.218;6.640;2022-09-09T14:05:21;20.30;99.90
51950;DHT22;37974;53.218;6.640;2022-09-09T14:07:53;20.50;99.90
51950;DHT22;37974;53.218;6.640;2022-09-09T14:10:22;20.70;99.90
51950;DHT22;37974;53.218;6.640;2022-09-09T14:12:48;20.70;99.90
51950;DHT22;37974;53.218;6.640;2022-09-09T14:15:14;20.80;99.90
51950;DHT22;37974;53.218;6.640;2022-09-09T14:17:40;20.80;99.90
51950;DHT22;37974;53.218;6.640;2022-09-09T14:20:07;20.90;99.90
51950;DHT22;37974;53.218;6.640;2022-09-09T14:22:35;20.80;99.90
51950;DHT22;37974;53.218;6.640;2022-09-09T14:25:01;20.60;99.90
51950;DHT22;37974;53.218;6.640;2022-09-09T14:27:27;20.50;99.90
51950;DHT22;37974;53.218;6.640;2022-09-09T14:29:53;20.50;99.90
51950;DHT22;37974;53.218;6.640;2022-09-09T14:32:20;20.40;99.90
51950;DHT22;37974;53.218;6.640;2022-09-09T14:34:46;20.40;99.90
51950;DHT22;37974;53.218;6.640;2022-09-09T14:37:16;20.40;99.90
51950;DHT22;37974;53.218;6.640;2022-09-09T14:39:43;20.50;99.90
51950;DHT22;37974;53.218;6.640;2022-09-09T14:42:10;20.40;99.90
51950;DHT22;37974;53.218;6.640;2022-09-09T14:44:37;20.30;99.90
51950;DHT22;37974;53.218;6.640;2022-09-09T14:47:05;20.20;99.90
51950;DHT22;37974;53.218;6.640;2022-09-09T15:02:00;18.80;99.90
51950;DHT22;37974;53.218;6.640;2022-09-09T15:04:29;18.60;99.90
51950;DHT22;37974;53.218;6.640;2022-09-09T15:07:11;18.60;99.90
51950;DHT22;37974;53.218;6.640;2022-09-09T15:09:40;18.60;99.90
51950;DHT22;37974;53.218;6.640;2022-09-09T15:12:26;18.70;99.90
51950;DHT22;37974;53.218;6.640;2022-09-09T15:14:56;18.70;99.90
51950;DHT22;37974;53.218;6.640;2022-09-09T15:17:22;19.00;99.90
51950;DHT22;37974;53.218;6.640;2022-09-09T15:19:47;19.10;99.90
51950;DHT22;37974;53.218;6.640;2022-09-09T15:22:15;19.30;99.90
51950;DHT22;37974;53.218;6.640;2022-09-09T15:24:41;19.60;99.90
51950;DHT22;37974;53.218;6.640;2022-09-09T15:27:13;19.70;99.90
51950;DHT22;37974;53.218;6.640;2022-09-09T15:29:40;19.80;99.90
51950;DHT22;37974;53.218;6.640;2022-09-09T15:32:07;19.80;99.90
51950;DHT22;37974;53.218;6.640;2022-09-09T15:34:35;19.80;99.90
51950;DHT22;37974;53.218;6.640;2022-09-09T15:37:04;19.80;99.90
51950;DHT22;37974;53.218;6.640;2022-09-09T15:39:30;19.80;99.90
51950;DHT22;37974;53.218;6.640;2022-09-09T15:41:55;19.80;99.90
51950;DHT22;37974;53.218;6.640;2022-09-09T15:44:22;19.80;99.90
51950;DHT22;37974;53.218;6.640;2022-09-09T15:46:52;19.70;99.90
51950;DHT22;37974;53.218;6.640;2022-09-09T15:49:22;19.80;99.90
51950;DHT22;37974;53.218;6.640;2022-09-09T15:51:53;19.90;99.90
51950;DHT22;37974;53.218;6.640;2022-09-09T15:54:21;19.90;99.90
51950;DHT22;37974;53.218;6.640;2022-09-09T16:00:18;19.90;99.90
51950;DHT22;37974;53.218;6.640;2022-09-09T16:03:15;19.90;99.90
51950;DHT22;37974;53.218;6.640;2022-09-09T16:05:54;19.70;99.90
51950;DHT22;37974;53.218;6.640;2022-09-09T16:08:30;19.70;99.90
51950;DHT22;37974;53.218;6.640;2022-09-09T16:11:10;19.70;99.90
51950;DHT22;37974;53.218;6.640;2022-09-09T16:16:54;19.60;99.90
51950;DHT22;37974;53.218;6.640;2022-09-09T16:19:49;19.50;99.90
51950;DHT22;37974;53.218;6.640;2022-09-09T16:22:15;19.40;99.90
51950;DHT22;37974;53.218;6.640;2022-09-09T16:24:48;19.40;99.90
51950;DHT22;37974;53.218;6.640;2022-09-09T16:27:34;19.30;99.90
51950;DHT22;37974;53.218;6.640;2022-09-09T16:33:41;19.20;99.90
51950;DHT22;37974;53.218;6.640;2022-09-09T16:36:12;19.10;99.90
51950;DHT22;37974;53.218;6.640;2022-09-09T16:38:38;19.10;99.90
51950;DHT22;37974;53.218;6.640;2022-09-09T16:41:26;19.00;99.90
51950;DHT22;37974;53.218;6.640;2022-09-09T16:43:57;18.80;99.90
51950;DHT22;37974;53.218;6.640;2022-09-09T16:46:36;18.80;99.90
51950;DHT22;37974;53.218;6.640;2022-09-09T16:49:13;18.70;99.90
51950;DHT22;37974;53.218;6.640;2022-09-09T16:51:42;18.60;99.90
51950;DHT22;37974;53.218;6.640;2022-09-09T16:54:10;18.50;99.90
51950;DHT22;37974;53.218;6.640;2022-09-09T16:56:39;18.40;99.90
51950;DHT22;37974;53.218;6.640;2022-09-09T16:59:09;18.30;99.90
51950;DHT22;37974;53.218;6.640;2022-09-09T17:01:42;18.20;99.90
51950;DHT22;37974;53.218;6.640;2022-09-09T17:04:13;18.20;99.90
51950;DHT22;37974;53.218;6.640;2022-09-09T17:06:40;18.10;99.90
51950;DHT22;37974;53.218;6.640;2022-09-09T17:09:36;18.00;99.90
51950;DHT22;37974;53.218;6.640;2022-09-09T17:12:04;17.90;99.90
51950;DHT22;37974;53.218;6.640;2022-09-09T17:15:15;17.90;99.90
51950;DHT22;37974;53.218;6.640;2022-09-09T17:17:44;17.80;99.90
51950;DHT22;37974;53.218;6.640;2022-09-09T17:20:20;17.80;99.90
51950;DHT22;37974;53.218;6.640;2022-09-09T17:23:19;17.70;99.90
51950;DHT22;37974;53.218;6.640;2022-09-09T17:41:09;17.50;99.90
51950;DHT22;37974;53.218;6.640;2022-09-09T19:00:13;16.90;99.90
51950;DHT22;37974;53.218;6.640;2022-09-09T19:03:50;16.90;99.90
51950;DHT22;37974;53.218;6.640;2022-09-09T19:07:04;16.80;99.90
51950;DHT22;37974;53.218;6.640;2022-09-09T19:21:49;16.80;99.90
51950;DHT22;37974;53.218;6.640;2022-09-09T19:25:48;16.70;99.90